Time;durP1;ratioP1;P1;durP2;ratioP2;P2;SDS_P1;SDS_P2;PMS_P1;PMS_P2;Temp;Humidity;BMP_temperature;BMP_pressure;BME280_temperature;BME280_humidity;BME280_pressure;Samples;Min_cycle;Max_cycle;Signal;HPM_P1;HPM_P2
2021/06/01 00:00:36;;;;;;;6.03;3.53;;;11.00;99.30;;;;;;5070550;28;20572;-71
2021/06/01 00:03:03;;;;;;;4.40;3.23;;;10.90;99.70;;;;;;5070592;28;20923;-70
2021/06/01 00:05:30;;;;;;;4.70;3.50;;;10.90;99.70;;;;;;5070252;28;20519;-71
2021/06/01 00:07:57;;;;;;;5.00;3.00;;;10.80;99.90;;;;;;5070371;28;20469;-71
2021/06/01 00:10:24;;;;;;;4.20;3.43;;;10.80;99.90;;;;;;5070685;28;20482;-71
2021/06/01 00:12:52;;;;;;;5.53;3.93;;;10.70;99.90;;;;;;5070686;28;20468;-71
2021/06/01 00:15:18;;;;;;;4.90;2.90;;;10.80;99.90;;;;;;5070215;28;20994;-71
2021/06/01 00:17:45;;;;;;;4.23;3.37;;;10.70;99.90;;;;;;5070630;28;20451;-71
2021/06/01 00:20:13;;;;;;;4.33;3.67;;;10.60;99.90;;;;;;5070553;28;20510;-71
2021/06/01 00:22:39;;;;;;;4.20;3.80;;;10.60;99.90;;;;;;5071143;28;20484;-71
2021/06/01 00:25:07;;;;;;;3.67;3.10;;;10.60;99.90;;;;;;5074313;28;20491;-70
2021/06/01 00:27:34;;;;;;;5.63;3.97;;;10.50;99.90;;;;;;5074562;28;20466;-70
2021/06/01 00:30:03;;;;;;;10.50;4.40;;;10.50;99.90;;;;;;5074483;28;20469;-70
2021/06/01 00:32:30;;;;;;;3.73;3.27;;;10.50;99.90;;;;;;5074482;28;20522;-71
2021/06/01 00:34:57;;;;;;;3.90;3.23;;;10.40;99.90;;;;;;5074468;28;20506;-70
2021/06/01 00:37:23;;;;;;;5.57;3.13;;;10.40;99.90;;;;;;5074174;28;20448;-71
2021/06/01 00:39:51;;;;;;;3.83;2.97;;;10.30;99.90;;;;;;5073828;28;20449;-71
2021/06/01 00:42:18;;;;;;;4.50;3.70;;;10.40;99.90;;;;;;5074074;28;20430;-71
2021/06/01 00:44:44;;;;;;;5.13;3.83;;;10.30;99.90;;;;;;5073886;28;20826;-72
2021/06/01 00:47:13;;;;;;;3.70;3.40;;;10.30;99.90;;;;;;5073947;28;20489;-70
2021/06/01 00:49:39;;;;;;;3.50;2.60;;;10.20;99.90;;;;;;5073951;28;20447;-70
2021/06/01 00:52:06;;;;;;;3.80;3.33;;;10.20;99.90;;;;;;5073752;28;20538;-71
2021/06/01 00:54:33;;;;;;;4.60;2.90;;;10.20;99.90;;;;;;5073481;28;20446;-71
2021/06/01 00:57:00;;;;;;;10.13;2.80;;;10.10;99.90;;;;;;5073777;28;20533;-70
2021/06/01 00:59:27;;;;;;;2.93;2.67;;;10.10;99.90;;;;;;5073794;28;20483;-72
2021/06/01 01:01:54;;;;;;;5.90;3.03;;;10.10;99.90;;;;;;5073780;28;20437;-72
2021/06/01 01:04:24;;;;;;;5.00;3.47;;;10.00;99.90;;;;;;5073580;28;20495;-71
2021/06/01 01:06:58;;;;;;;4.77;2.93;;;10.00;99.90;;;;;;5073697;28;20471;-71
2021/06/01 01:09:28;;;;;;;3.83;3.43;;;10.00;99.90;;;;;;5073206;28;20775;-71
2021/06/01 01:12:00;;;;;;;4.73;3.07;;;10.00;99.90;;;;;;5073722;28;20562;-71
2021/06/01 01:14:31;;;;;;;7.30;3.80;;;9.90;99.90;;;;;;5073439;28;20932;-71
2021/06/01 01:17:00;;;;;;;2.93;2.70;;;9.90;99.90;;;;;;5073503;28;20862;-71
2021/06/01 01:19:49;;;;;;;4.90;3.40;;;9.90;99.90;;;;;;5073508;28;20430;-71
2021/06/01 01:22:18;;;;;;;6.07;3.00;;;9.80;99.90;;;;;;5073294;28;20446;-71
2021/06/01 01:24:52;;;;;;;3.93;3.20;;;9.80;99.90;;;;;;5072916;28;20448;-71
2021/06/01 01:27:27;;;;;;;5.20;3.50;;;9.70;99.90;;;;;;5073180;28;20524;-72
2021/06/01 01:29:56;;;;;;;3.97;2.87;;;9.60;99.90;;;;;;5073573;28;20537;-72
2021/06/01 01:32:32;;;;;;;5.40;3.80;;;9.70;99.90;;;;;;5072907;28;20472;-71
2021/06/01 01:35:02;;;;;;;3.10;2.80;;;9.70;99.90;;;;;;5071642;28;20425;-71
2021/06/01 01:37:32;;;;;;;5.43;3.90;;;9.70;99.90;;;;;;5073178;28;20508;-70
2021/06/01 01:40:00;;;;;;;8.37;3.97;;;9.70;99.90;;;;;;5072718;28;20445;-71
2021/06/01 01:42:30;;;;;;;5.03;3.47;;;9.70;99.90;;;;;;5073342;28;20442;-71
2021/06/01 01:44:58;;;;;;;8.07;4.07;;;9.60;99.90;;;;;;5072703;28;20442;-72
2021/06/01 01:50:12;;;;;;;3.53;3.23;;;9.50;99.90;;;;;;5073086;28;20408;-71
2021/06/01 01:52:41;;;;;;;5.77;3.67;;;9.50;99.90;;;;;;5072677;28;20861;-71
2021/06/01 01:55:11;;;;;;;4.80;3.67;;;9.40;99.90;;;;;;5072267;28;20918;-71
2021/06/01 01:57:42;;;;;;;4.20;3.73;;;9.40;99.90;;;;;;5072662;28;20492;-71
2021/06/01 02:00:11;;;;;;;5.53;3.40;;;9.40;99.90;;;;;;5072809;28;20418;-71
2021/06/01 02:02:38;;;;;;;4.57;3.60;;;9.40;99.90;;;;;;5072445;28;20525;-71
2021/06/01 02:05:06;;;;;;;6.93;3.93;;;9.40;99.90;;;;;;5072838;28;20480;-71
2021/06/01 02:07:35;;;;;;;3.97;3.40;;;9.40;99.90;;;;;;5072241;28;20872;-71
2021/06/01 02:10:04;;;;;;;5.20;3.40;;;9.30;99.90;;;;;;5072099;28;20441;-71
2021/06/01 02:12:30;;;;;;;4.43;4.03;;;9.30;99.90;;;;;;5072568;28;20473;-70
2021/06/01 02:14:57;;;;;;;7.23;3.93;;;9.30;99.90;;;;;;5072076;28;20449;-70
2021/06/01 02:17:24;;;;;;;4.77;3.43;;;9.20;99.90;;;;;;5072437;28;20462;-71
2021/06/01 02:19:51;;;;;;;3.87;3.50;;;9.20;99.90;;;;;;5072098;28;20433;-72
2021/06/01 02:22:24;;;;;;;10.23;3.93;;;9.10;99.90;;;;;;5072249;28;20430;-71
2021/06/01 02:24:59;;;;;;;5.10;3.17;;;9.10;99.90;;;;;;5072050;28;20431;-71
2021/06/01 02:27:33;;;;;;;4.20;3.80;;;9.00;99.90;;;;;;5072088;28;20469;-71
2021/06/01 02:30:06;;;;;;;4.17;3.30;;;9.00;99.90;;;;;;5072099;28;20429;-71
2021/06/01 02:32:35;;;;;;;5.90;3.40;;;9.00;99.90;;;;;;5072045;28;20461;-70
2021/06/01 02:35:07;;;;;;;2.53;2.33;;;9.00;99.90;;;;;;5071666;28;20483;-71
2021/06/01 02:37:34;;;;;;;5.43;4.00;;;9.00;99.90;;;;;;5071843;28;20483;-71
2021/06/01 02:40:05;;;;;;;5.00;4.00;;;8.90;99.90;;;;;;5071736;28;20430;-70
2021/06/01 02:42:32;;;;;;;4.97;4.03;;;8.90;99.90;;;;;;5072170;28;20422;-71
2021/06/01 02:45:00;;;;;;;5.77;3.50;;;8.90;99.90;;;;;;5071209;28;20440;-71
2021/06/01 02:47:27;;;;;;;6.53;4.00;;;8.80;99.90;;;;;;5071598;28;20907;-70
2021/06/01 02:49:54;;;;;;;4.63;3.50;;;8.80;99.90;;;;;;5071637;28;20941;-70
2021/06/01 02:52:22;;;;;;;4.47;3.70;;;8.80;99.90;;;;;;5071524;28;20556;-70
2021/06/01 02:54:49;;;;;;;5.50;3.77;;;8.80;99.90;;;;;;5071119;28;20487;-71
2021/06/01 02:57:19;;;;;;;9.10;3.90;;;8.80;99.90;;;;;;5071534;28;20450;-71
2021/06/01 02:59:46;;;;;;;10.57;4.27;;;8.80;99.90;;;;;;5071403;28;20430;-72
2021/06/01 03:02:13;;;;;;;6.33;4.07;;;8.80;99.90;;;;;;5071812;28;20444;-71
2021/06/01 03:04:49;;;;;;;4.27;3.10;;;8.80;99.90;;;;;;5071511;28;20814;-71
2021/06/01 03:07:16;;;;;;;4.77;3.47;;;8.80;99.90;;;;;;5071400;28;20479;-71
2021/06/01 03:09:43;;;;;;;5.63;3.50;;;8.70;99.90;;;;;;5071062;28;20426;-71
2021/06/01 03:12:20;;;;;;;3.60;3.23;;;8.70;99.90;;;;;;5071335;28;20473;-70
2021/06/01 03:14:49;;;;;;;4.60;3.90;;;8.70;99.90;;;;;;5071047;28;20441;-71
2021/06/01 03:17:16;;;;;;;5.30;3.27;;;8.60;99.90;;;;;;5071128;28;21016;-71
2021/06/01 03:19:43;;;;;;;4.33;3.77;;;8.60;99.90;;;;;;5071118;28;20422;-70
2021/06/01 03:22:10;;;;;;;9.83;4.27;;;8.60;99.90;;;;;;5071147;28;20448;-71
2021/06/01 03:24:36;;;;;;;4.03;3.47;;;8.60;99.90;;;;;;5070952;28;20927;-71
2021/06/01 03:27:04;;;;;;;4.87;3.77;;;8.60;99.90;;;;;;5070781;28;20462;-71
2021/06/01 03:29:30;;;;;;;7.50;5.77;;;8.60;99.90;;;;;;5071210;28;20442;-70
2021/06/01 03:31:58;;;;;;;4.93;4.13;;;8.60;99.90;;;;;;5070751;28;20418;-70
2021/06/01 03:34:25;;;;;;;5.67;4.33;;;8.60;99.90;;;;;;5070732;28;20444;-72
2021/06/01 03:36:52;;;;;;;4.23;3.50;;;8.60;99.90;;;;;;5070977;28;20940;-70
2021/06/01 03:39:20;;;;;;;3.90;3.43;;;8.50;99.90;;;;;;5070611;28;20440;-72
2021/06/01 03:41:47;;;;;;;3.40;3.10;;;8.50;99.90;;;;;;5070868;28;20434;-72
2021/06/01 03:44:14;;;;;;;5.53;3.20;;;8.50;99.90;;;;;;5070405;28;20444;-71
2021/06/01 03:46:44;;;;;;;5.63;3.73;;;8.50;99.90;;;;;;5070925;28;20442;-70
2021/06/01 03:49:12;;;;;;;4.00;3.60;;;8.50;99.90;;;;;;5070743;28;20418;-72
2021/06/01 03:51:38;;;;;;;8.30;3.27;;;8.50;99.90;;;;;;5070776;28;20438;-71
2021/06/01 03:54:05;;;;;;;4.80;4.13;;;8.60;99.90;;;;;;5070030;28;20474;-71
2021/06/01 03:56:34;;;;;;;10.30;3.53;;;8.50;99.90;;;;;;5070328;28;20468;-73
2021/06/01 03:59:01;;;;;;;4.90;3.67;;;8.60;99.90;;;;;;5070259;28;20975;-73
2021/06/01 04:01:28;;;;;;;3.90;3.43;;;8.60;99.90;;;;;;5070793;28;20450;-73
2021/06/01 04:03:54;;;;;;;5.73;3.60;;;8.60;99.90;;;;;;5070484;28;20429;-70
2021/06/01 04:06:22;;;;;;;6.00;4.07;;;8.60;99.90;;;;;;5070509;28;20466;-70
2021/06/01 04:08:49;;;;;;;7.07;3.97;;;8.60;99.90;;;;;;5070342;28;20438;-71
2021/06/01 04:11:16;;;;;;;5.23;4.17;;;8.70;99.90;;;;;;5070816;28;20521;-70
2021/06/01 04:13:43;;;;;;;4.83;4.30;;;8.70;99.90;;;;;;5070497;28;20473;-72
2021/06/01 04:16:09;;;;;;;5.30;4.20;;;8.70;99.90;;;;;;5070300;28;20441;-73
2021/06/01 04:18:36;;;;;;;4.40;3.70;;;8.70;99.90;;;;;;5070496;28;20479;-72
2021/06/01 04:21:03;;;;;;;8.23;4.00;;;8.70;99.90;;;;;;5070464;28;20432;-72
2021/06/01 04:23:31;;;;;;;5.70;3.90;;;8.80;99.90;;;;;;5070534;28;20915;-72
2021/06/01 04:25:58;;;;;;;4.20;3.80;;;8.80;99.90;;;;;;5070335;28;20965;-73
2021/06/01 04:28:24;;;;;;;6.63;3.90;;;8.90;99.90;;;;;;5070476;28;20454;-72
2021/06/01 04:30:51;;;;;;;4.00;3.47;;;8.90;99.90;;;;;;5070427;28;20506;-72
2021/06/01 04:33:18;;;;;;;5.30;4.10;;;8.90;99.90;;;;;;5070232;28;20471;-73
2021/06/01 04:35:45;;;;;;;4.93;4.37;;;8.90;99.90;;;;;;5070239;28;20434;-72
2021/06/01 04:38:11;;;;;;;4.77;3.70;;;8.90;99.90;;;;;;5070384;28;20808;-72
2021/06/01 04:40:39;;;;;;;4.13;3.73;;;9.00;99.90;;;;;;5070170;28;20476;-72
2021/06/01 04:43:06;;;;;;;4.00;3.60;;;9.00;99.90;;;;;;5070300;28;20422;-72
2021/06/01 04:45:33;;;;;;;3.50;3.20;;;9.10;99.90;;;;;;5070190;28;20434;-72
2021/06/01 04:47:59;;;;;;;5.50;4.07;;;9.20;99.90;;;;;;5070181;28;20446;-72
2021/06/01 04:50:26;;;;;;;3.70;3.40;;;9.30;99.90;;;;;;5070014;28;20450;-72
2021/06/01 04:52:54;;;;;;;4.30;3.30;;;9.30;99.90;;;;;;5070102;28;20555;-72
2021/06/01 04:55:21;;;;;;;4.73;4.10;;;9.30;99.90;;;;;;5069842;28;20426;-72
2021/06/01 04:57:49;;;;;;;7.23;3.80;;;9.30;99.90;;;;;;5070094;28;20476;-72
2021/06/01 05:00:17;;;;;;;7.27;3.90;;;9.40;99.90;;;;;;5070294;28;20522;-72
2021/06/01 05:02:44;;;;;;;13.60;5.53;;;9.50;99.90;;;;;;5070133;28;20434;-73
2021/06/01 05:05:11;;;;;;;6.93;3.70;;;9.50;99.90;;;;;;5069895;28;20975;-73
2021/06/01 05:07:38;;;;;;;7.07;6.40;;;9.60;99.90;;;;;;5069724;28;20470;-72
2021/06/01 05:10:06;;;;;;;7.03;6.33;;;9.60;99.90;;;;;;5072725;28;20530;-72
2021/06/01 05:12:33;;;;;;;8.67;5.70;;;9.70;99.90;;;;;;5073488;28;20496;-70
2021/06/01 05:15:01;;;;;;;39.13;20.77;;;9.80;99.90;;;;;;5073250;28;20495;-69
2021/06/01 05:17:28;;;;;;;54.23;30.00;;;9.90;99.90;;;;;;5073119;28;20543;-70
2021/06/01 05:19:55;;;;;;;59.20;33.67;;;9.90;99.90;;;;;;5073331;28;20779;-71
2021/06/01 05:22:25;;;;;;;28.50;18.33;;;10.10;99.90;;;;;;5073571;28;20473;-71
2021/06/01 05:24:51;;;;;;;9.17;7.63;;;10.20;99.90;;;;;;5072608;28;20426;-70
2021/06/01 05:27:18;;;;;;;22.17;15.63;;;10.20;99.90;;;;;;5072005;28;20469;-70
2021/06/01 05:29:46;;;;;;;21.13;14.93;;;10.20;99.90;;;;;;5073306;28;20914;-72
2021/06/01 05:32:52;;;;;;;18.73;7.87;;;10.20;99.90;;;;;;5073397;28;20434;-70
2021/06/01 05:35:23;;;;;;;7.27;5.30;;;10.30;99.90;;;;;;5072827;28;20438;-72
2021/06/01 05:37:51;;;;;;;7.23;6.53;;;10.30;99.90;;;;;;5073040;28;20511;-71
2021/06/01 05:40:18;;;;;;;7.77;6.23;;;10.30;99.90;;;;;;5072756;28;20426;-71
2021/06/01 05:42:44;;;;;;;8.23;5.87;;;10.40;99.90;;;;;;5072935;28;20426;-69
2021/06/01 05:45:12;;;;;;;6.87;4.60;;;10.50;99.90;;;;;;5072709;28;20436;-70
2021/06/01 05:47:40;;;;;;;5.80;4.50;;;10.50;99.90;;;;;;5072837;28;20542;-69
2021/06/01 05:50:07;;;;;;;8.17;5.67;;;10.60;99.90;;;;;;5073186;28;20446;-70
2021/06/01 05:52:35;;;;;;;5.90;4.70;;;10.70;99.90;;;;;;5072852;28;20462;-71
2021/06/01 05:55:04;;;;;;;5.10;4.40;;;10.70;99.90;;;;;;5072117;28;20949;-70
2021/06/01 05:57:30;;;;;;;4.73;3.80;;;10.80;99.90;;;;;;5072800;28;20450;-70
2021/06/01 05:59:57;;;;;;;10.50;4.20;;;10.80;99.90;;;;;;5072675;28;20439;-71
2021/06/01 06:02:24;;;;;;;6.10;5.00;;;10.90;99.90;;;;;;5072681;28;20511;-70
2021/06/01 06:04:52;;;;;;;4.30;3.90;;;11.00;99.90;;;;;;5072527;28;20490;-72
2021/06/01 06:07:19;;;;;;;5.30;4.73;;;11.00;99.90;;;;;;5072337;28;20812;-72
2021/06/01 06:09:45;;;;;;;5.57;4.57;;;11.10;99.90;;;;;;5072398;28;20432;-71
2021/06/01 06:12:12;;;;;;;6.03;4.83;;;11.20;99.90;;;;;;5072657;28;20441;-71
2021/06/01 06:14:39;;;;;;;6.90;5.00;;;11.20;99.90;;;;;;5072669;28;20483;-72
2021/06/01 06:17:08;;;;;;;4.67;4.10;;;11.20;99.90;;;;;;5072781;28;20464;-71
2021/06/01 06:19:39;;;;;;;5.20;4.50;;;11.20;99.90;;;;;;5072221;28;20433;-71
2021/06/01 06:22:08;;;;;;;7.50;5.07;;;11.30;99.90;;;;;;5071766;28;20430;-72
2021/06/01 06:24:35;;;;;;;4.47;4.07;;;11.30;99.90;;;;;;5072079;28;20806;-72
2021/06/01 06:27:01;;;;;;;6.03;5.07;;;11.40;99.90;;;;;;5072041;28;20465;-71
2021/06/01 06:29:28;;;;;;;8.00;5.20;;;11.50;99.90;;;;;;5072016;28;20423;-72
2021/06/01 06:31:55;;;;;;;4.43;3.70;;;11.50;99.90;;;;;;5071970;28;20438;-72
2021/06/01 06:34:21;;;;;;;4.77;4.27;;;11.60;99.90;;;;;;5071732;28;20478;-71
2021/06/01 06:36:48;;;;;;;6.60;4.80;;;11.60;99.90;;;;;;5072204;28;20465;-71
2021/06/01 06:39:16;;;;;;;5.37;4.27;;;11.70;99.90;;;;;;5071764;28;20431;-73
2021/06/01 11:07:26;;;;;;;2.50;2.30;;;21.50;86.10;;;;;;5535880;22;20901;-68
2021/06/01 11:09:53;;;;;;;3.50;2.47;;;21.60;84.90;;;;;;4993654;28;20488;-68
2021/06/01 11:12:39;;;;;;;4.53;3.43;;;21.60;88.60;;;;;;4992218;28;20425;-68
2021/06/01 11:15:24;;;;;;;4.60;2.70;;;21.90;89.80;;;;;;4992185;28;20522;-68
2021/06/01 11:17:51;;;;;;;6.40;3.03;;;22.00;88.60;;;;;;4992022;28;20849;-68
2021/06/01 11:20:24;;;;;;;3.87;2.60;;;22.00;87.30;;;;;;4992341;28;20876;-68
2021/06/01 11:23:10;;;;;;;3.20;2.23;;;22.20;86.40;;;;;;4991663;28;20437;-68
2021/06/01 11:32:48;;;;;;;4.13;2.73;;;22.40;82.90;;;;;;5011564;28;20439;-68
2021/06/01 11:34:37;;;;;;;2.30;2.10;;;22.60;80.80;;;;;;5011312;28;20502;-69
2021/06/01 11:37:16;;;;;;;4.53;2.30;;;22.60;81.00;;;;;;5019653;28;20472;-68
2021/06/01 11:39:55;;;;;;;2.60;2.33;;;22.60;79.80;;;;;;5031141;28;20522;-69
2021/06/01 11:45:09;;;;;;;4.13;2.10;;;22.90;83.40;;;;;;5009741;28;20444;-69
2021/06/01 11:47:56;;;;;;;3.27;2.20;;;23.20;81.40;;;;;;5030797;28;20463;-69
2021/06/01 11:53:15;;;;;;;7.90;2.67;;;23.40;78.40;;;;;;5007037;28;20478;-68
2021/06/01 11:55:46;;;;;;;3.30;2.03;;;23.40;77.40;;;;;;5006606;28;20433;-68
2021/06/01 12:03:59;;;;;;;2.83;2.03;;;23.40;76.40;;;;;;4968552;28;20471;-69
2021/06/01 12:12:04;;;;;;;9.13;1.80;;;24.10;71.80;;;;;;5010739;28;20419;-69
2021/06/01 12:17:46;;;;;;;4.07;2.00;;;24.10;72.30;;;;;;5010811;28;20995;-69
2021/06/01 12:20:14;;;;;;;1.93;1.70;;;24.20;67.10;;;;;;5014482;28;20513;-69
2021/06/01 12:22:41;;;;;;;3.23;1.87;;;24.20;74.60;;;;;;5014767;28;20917;-67
2021/06/01 12:25:11;;;;;;;2.37;2.17;;;24.40;70.80;;;;;;5004440;28;21228;-68
2021/06/01 12:27:56;;;;;;;1.80;1.50;;;24.40;66.30;;;;;;5009223;28;20480;-68
2021/06/01 12:33:10;;;;;;;2.60;1.50;;;24.70;67.20;;;;;;5013861;28;20435;-68
2021/06/01 12:36:04;;;;;;;2.70;1.70;;;24.70;63.30;;;;;;4995213;28;20420;-68
2021/06/01 12:44:20;;;;;;;3.00;1.80;;;25.30;61.20;;;;;;4989922;28;20488;-70
2021/06/01 12:47:05;;;;;;;2.50;1.50;;;25.40;59.70;;;;;;4994820;28;20469;-70
2021/06/01 13:20:53;;;;;;;3.20;2.00;;;25.70;58.50;;;;;;5033275;28;20597;-69
2021/06/01 13:32:08;;;;;;;2.23;1.20;;;25.70;55.30;;;;;;5013954;28;20422;-67
2021/06/01 13:40:24;;;;;;;2.93;2.00;;;25.60;55.50;;;;;;5017324;28;20831;-68
2021/06/01 13:46:05;;;;;;;2.47;1.73;;;26.10;56.50;;;;;;5033107;28;20832;-68
2021/06/01 13:48:54;;;;;;;1.40;1.30;;;26.40;57.90;;;;;;5033402;28;20428;-68
2021/06/01 13:57:11;;;;;;;1.67;1.50;;;26.40;54.40;;;;;;5033059;28;20439;-68
2021/06/01 13:59:51;;;;;;;2.13;1.50;;;26.30;52.90;;;;;;5033361;28;20436;-68
2021/06/01 14:30:20;;;;;;;2.50;1.50;;;28.30;53.80;;;;;;4951997;29;20462;-70
2021/06/01 14:38:37;;;;;;;2.03;1.33;;;28.00;53.20;;;;;;5012387;28;20528;-70
2021/06/01 14:55:35;;;;;;;1.63;1.37;;;28.70;50.70;;;;;;4992665;28;20596;-69
2021/06/01 15:04:11;;;;;;;3.07;1.23;;;28.90;48.20;;;;;;4992545;28;20494;-66
2021/06/01 15:28:50;;;;;;;1.90;1.60;;;28.90;48.30;;;;;;5011728;28;20801;-66
2021/06/01 15:31:34;;;;;;;1.40;1.30;;;29.00;48.00;;;;;;4994807;28;20453;-68
2021/06/01 15:47:51;;;;;;;4.10;1.60;;;28.80;47.20;;;;;;5011258;28;20451;-67
2021/06/01 15:50:26;;;;;;;1.83;1.63;;;29.00;47.20;;;;;;5011843;28;20429;-66
2021/06/01 16:13:01;;;;;;;1.70;1.43;;;28.30;47.00;;;;;;5031010;28;20994;-67
2021/06/01 16:21:25;;;;;;;3.23;1.63;;;27.80;48.40;;;;;;5051236;28;20411;-69
2021/06/01 16:44:05;;;;;;;2.03;1.47;;;26.70;49.60;;;;;;5108259;28;20515;-69
2021/06/01 17:03:46;;;;;;;4.80;1.20;;;25.40;52.40;;;;;;5107882;28;20443;-69
2021/06/01 17:06:40;;;;;;;6.43;1.60;;;25.30;53.80;;;;;;5107808;28;20993;-68
2021/06/01 17:12:01;;;;;;;1.73;1.53;;;24.90;52.20;;;;;;5107578;28;20469;-69
2021/06/01 17:14:30;;;;;;;1.77;1.37;;;24.70;51.20;;;;;;5107491;28;20486;-69
2021/06/01 17:17:06;;;;;;;2.73;1.70;;;24.40;52.00;;;;;;5107277;28;20944;-70
2021/06/01 17:22:50;;;;;;;2.90;1.53;;;24.10;51.80;;;;;;5107446;28;20412;-67
2021/06/01 17:31:22;;;;;;;3.07;1.57;;;23.20;53.80;;;;;;5093947;28;20404;-69
2021/06/01 17:36:36;;;;;;;1.33;1.23;;;22.70;52.10;;;;;;5085210;28;20529;-69
2021/06/01 17:39:05;;;;;;;2.10;1.63;;;22.50;52.20;;;;;;5083653;28;20464;-69
2021/06/01 17:41:35;;;;;;;4.67;1.87;;;22.30;54.00;;;;;;5073223;28;20441;-69
2021/06/01 17:44:04;;;;;;;2.07;1.60;;;22.20;53.50;;;;;;5091372;28;20509;-69
2021/06/01 17:46:35;;;;;;;1.67;1.27;;;22.10;54.30;;;;;;5093385;28;20437;-70
2021/06/01 17:49:04;;;;;;;2.47;1.60;;;22.00;53.50;;;;;;5093440;28;20429;-69
2021/06/01 17:51:32;;;;;;;1.83;1.57;;;21.90;55.00;;;;;;5093362;28;20801;-69
2021/06/01 17:54:00;;;;;;;2.97;1.70;;;21.80;54.00;;;;;;5092996;28;20476;-68
2021/06/01 17:56:30;;;;;;;1.83;1.60;;;21.70;55.30;;;;;;5093055;28;20445;-69
2021/06/01 17:58:58;;;;;;;3.43;1.70;;;21.60;55.30;;;;;;5093350;28;20457;-69
2021/06/01 18:01:28;;;;;;;3.20;2.20;;;21.50;56.00;;;;;;5093164;28;20445;-69
2021/06/01 18:03:59;;;;;;;2.00;1.73;;;21.40;56.00;;;;;;5093121;28;20511;-69
2021/06/01 18:06:30;;;;;;;4.00;1.90;;;21.20;57.40;;;;;;5093256;28;20457;-70
2021/06/01 18:09:05;;;;;;;2.33;2.13;;;21.10;56.80;;;;;;5093005;28;20425;-69
2021/06/01 18:11:51;;;;;;;2.67;1.73;;;21.00;57.30;;;;;;5093134;28;20428;-69
2021/06/01 19:26:35;;;;;;;2.83;2.30;;;17.60;68.70;;;;;;5062130;28;20668;-67
2021/06/01 19:29:28;;;;;;;4.13;2.63;;;17.50;69.10;;;;;;5071545;28;20776;-67
2021/06/01 19:51:23;;;;;;;2.60;2.20;;;17.10;70.40;;;;;;5091390;28;20782;-67
2021/06/01 19:53:51;;;;;;;7.23;2.87;;;17.00;70.90;;;;;;5090919;28;20429;-67
2021/06/01 19:56:18;;;;;;;12.43;2.60;;;17.00;71.40;;;;;;5090960;28;20443;-67
2021/06/01 19:58:47;;;;;;;5.27;2.53;;;16.90;71.80;;;;;;5091004;28;20980;-67
2021/06/01 20:01:14;;;;;;;3.13;2.70;;;16.90;71.70;;;;;;5091158;28;20441;-67
2021/06/01 20:03:42;;;;;;;3.90;2.37;;;16.80;72.10;;;;;;5091193;28;20925;-68
2021/06/01 20:06:11;;;;;;;4.60;2.93;;;16.80;72.40;;;;;;5090880;28;20801;-67
2021/06/01 20:08:40;;;;;;;2.67;2.47;;;16.70;72.00;;;;;;5091028;28;20737;-67
2021/06/01 20:11:09;;;;;;;3.50;2.13;;;16.60;72.30;;;;;;5090750;28;20486;-67
2021/06/01 20:13:36;;;;;;;3.37;2.73;;;16.60;73.30;;;;;;5090817;28;20441;-67
2021/06/01 20:16:03;;;;;;;2.63;2.43;;;16.50;73.60;;;;;;5090920;28;20472;-67
2021/06/01 20:18:36;;;;;;;3.13;2.83;;;16.50;73.70;;;;;;5090980;28;20425;-67
2021/06/01 20:21:04;;;;;;;5.03;2.63;;;16.50;73.90;;;;;;5091006;28;20428;-68
2021/06/01 20:23:31;;;;;;;2.10;2.00;;;16.40;74.30;;;;;;5090639;28;20455;-68
2021/06/01 20:25:59;;;;;;;4.80;3.20;;;16.40;74.30;;;;;;5090954;28;20999;-68
2021/06/01 20:28:31;;;;;;;7.10;2.73;;;16.30;74.20;;;;;;5090650;28;20445;-67
2021/06/01 20:31:08;;;;;;;2.90;2.60;;;16.20;74.20;;;;;;5089201;28;20472;-67
2021/06/01 20:33:36;;;;;;;5.53;2.20;;;16.20;74.20;;;;;;5087185;28;20460;-68
2021/06/01 20:36:04;;;;;;;4.60;2.40;;;16.10;74.20;;;;;;5090371;28;20465;-68
2021/06/01 20:38:31;;;;;;;3.40;2.50;;;16.00;73.40;;;;;;5090551;28;20777;-67
2021/06/01 20:41:01;;;;;;;4.20;2.87;;;16.00;73.80;;;;;;5090725;28;20975;-65
2021/06/01 20:43:27;;;;;;;6.10;2.20;;;16.00;73.70;;;;;;5091174;28;21041;-66
2021/06/01 20:45:54;;;;;;;11.90;3.10;;;15.90;74.50;;;;;;5090496;28;20439;-67
2021/06/01 20:48:22;;;;;;;5.63;2.87;;;15.90;74.50;;;;;;5090594;28;20449;-67
2021/06/01 20:50:51;;;;;;;3.90;3.50;;;15.80;74.50;;;;;;5090566;28;20435;-66
2021/06/01 20:53:18;;;;;;;7.47;2.40;;;15.70;74.50;;;;;;5090489;28;20421;-67
2021/06/01 20:55:47;;;;;;;3.73;3.43;;;15.70;74.50;;;;;;5090345;28;20484;-67
2021/06/01 20:58:20;;;;;;;4.67;2.63;;;15.70;74.30;;;;;;5090612;28;20599;-66
2021/06/01 21:00:51;;;;;;;5.93;3.50;;;15.70;73.90;;;;;;5091811;28;20433;-66
2021/06/01 21:03:20;;;;;;;3.07;2.60;;;15.70;74.10;;;;;;5094239;28;20417;-66
2021/06/01 21:05:47;;;;;;;2.93;2.37;;;15.60;73.50;;;;;;5094108;28;20451;-66
2021/06/01 21:08:16;;;;;;;3.40;3.10;;;15.60;73.70;;;;;;5093938;28;20532;-66
2021/06/01 21:10:43;;;;;;;4.70;2.97;;;15.60;74.30;;;;;;5094262;28;20441;-66
2021/06/01 21:13:11;;;;;;;4.30;3.63;;;15.50;74.20;;;;;;5094176;28;20812;-66
2021/06/01 21:15:39;;;;;;;5.07;3.83;;;15.50;74.10;;;;;;5093636;28;20494;-66
2021/06/01 21:18:06;;;;;;;2.70;2.20;;;15.40;74.40;;;;;;5093990;28;20445;-66
2021/06/01 21:20:33;;;;;;;3.37;2.20;;;15.40;74.50;;;;;;5094100;28;20464;-66
2021/06/01 21:23:02;;;;;;;2.73;2.17;;;15.30;74.70;;;;;;5093600;28;20421;-66
2021/06/01 21:25:29;;;;;;;2.40;2.13;;;15.20;75.00;;;;;;5093727;28;21055;-66
2021/06/01 21:27:57;;;;;;;6.10;2.40;;;15.20;75.00;;;;;;5093848;28;20478;-66
2021/06/01 21:30:27;;;;;;;6.83;2.33;;;15.10;75.10;;;;;;5093734;28;20891;-66
2021/06/01 21:32:59;;;;;;;2.63;2.23;;;15.10;75.40;;;;;;5094347;28;20441;-66
2021/06/01 21:35:28;;;;;;;4.23;2.00;;;15.10;75.40;;;;;;5093526;28;20579;-66
2021/06/01 21:37:58;;;;;;;4.33;3.10;;;15.00;75.40;;;;;;5090653;28;20517;-66
2021/06/01 21:40:27;;;;;;;4.20;2.67;;;15.00;75.50;;;;;;5092198;28;20790;-66
2021/06/01 21:42:56;;;;;;;4.23;2.77;;;14.90;75.00;;;;;;5093682;28;20508;-66
2021/06/01 21:45:25;;;;;;;2.53;2.13;;;14.90;74.70;;;;;;5093515;28;20516;-66
2021/06/01 21:47:53;;;;;;;4.07;2.37;;;14.90;74.40;;;;;;5093663;28;20449;-66
2021/06/01 21:50:25;;;;;;;2.83;2.20;;;14.80;74.70;;;;;;5093428;28;20480;-66
2021/06/01 21:52:53;;;;;;;2.57;1.93;;;14.80;75.10;;;;;;5093706;28;20571;-66
2021/06/01 21:55:24;;;;;;;4.33;2.30;;;14.80;74.80;;;;;;5093069;28;21009;-66
2021/06/01 21:57:51;;;;;;;2.27;2.07;;;14.80;75.40;;;;;;5093175;28;20475;-66
2021/06/01 22:00:24;;;;;;;2.20;1.80;;;14.70;75.60;;;;;;5093157;28;20429;-66
2021/06/01 22:02:51;;;;;;;2.30;2.10;;;14.70;74.40;;;;;;5092419;28;20459;-66
2021/06/01 22:05:18;;;;;;;4.30;2.37;;;14.70;74.90;;;;;;5093037;28;20437;-66
2021/06/01 22:07:47;;;;;;;3.77;1.70;;;14.70;75.30;;;;;;5093008;28;20813;-66
2021/06/01 22:10:14;;;;;;;3.53;2.40;;;14.70;75.10;;;;;;5092957;28;20981;-66
2021/06/01 22:12:42;;;;;;;2.00;1.63;;;14.70;75.40;;;;;;5093264;28;20763;-67
2021/06/01 22:15:42;;;;;;;2.47;1.70;;;14.60;75.50;;;;;;5092862;28;20487;-66
2021/06/01 22:18:11;;;;;;;3.40;2.10;;;14.60;75.60;;;;;;5075417;28;20482;-66
2021/06/01 22:20:39;;;;;;;2.37;2.17;;;14.60;75.30;;;;;;5092922;28;20804;-66
2021/06/01 22:23:08;;;;;;;3.90;2.17;;;14.50;75.80;;;;;;5092623;28;20503;-66
2021/06/01 22:25:36;;;;;;;2.30;1.77;;;14.50;76.00;;;;;;5092523;28;20546;-66
2021/06/01 22:28:04;;;;;;;3.43;2.07;;;14.40;76.70;;;;;;5092758;28;20805;-66
2021/06/01 22:30:34;;;;;;;2.60;2.10;;;14.40;76.80;;;;;;5092535;28;20444;-66
2021/06/01 22:33:02;;;;;;;2.53;1.90;;;14.30;76.40;;;;;;5092737;28;20517;-66
2021/06/01 22:35:30;;;;;;;2.43;1.80;;;14.30;76.70;;;;;;5092275;28;20471;-67
2021/06/01 22:37:57;;;;;;;3.87;2.03;;;14.20;77.10;;;;;;5092519;28;20948;-66
2021/06/01 22:40:26;;;;;;;2.70;1.77;;;14.30;77.20;;;;;;5092180;28;20504;-66
2021/06/01 22:42:54;;;;;;;1.77;1.67;;;14.30;77.90;;;;;;5092465;28;20449;-66
2021/06/01 22:45:22;;;;;;;3.00;2.13;;;14.20;77.60;;;;;;5092284;28;20505;-66
2021/06/01 22:47:50;;;;;;;7.03;2.27;;;14.10;77.80;;;;;;5092364;28;20473;-66
2021/06/01 22:50:17;;;;;;;3.00;1.97;;;14.10;77.90;;;;;;5092215;28;21107;-66
2021/06/01 22:52:43;;;;;;;2.50;2.07;;;14.10;79.80;;;;;;5090110;28;20937;-66
2021/06/01 22:55:11;;;;;;;2.03;1.77;;;14.00;78.70;;;;;;5092027;28;20473;-66
2021/06/01 22:57:45;;;;;;;4.10;2.20;;;14.00;79.30;;;;;;5091941;28;20465;-66
2021/06/01 23:00:13;;;;;;;2.13;1.93;;;13.90;78.40;;;;;;5071806;28;20426;-66
2021/06/01 23:02:46;;;;;;;1.70;1.57;;;13.90;79.30;;;;;;5072161;28;20528;-66
2021/06/01 23:05:14;;;;;;;7.40;1.87;;;13.90;79.60;;;;;;5071959;28;20517;-67
2021/06/01 23:07:43;;;;;;;10.57;2.57;;;13.90;79.90;;;;;;5085565;28;20969;-66
2021/06/01 23:10:12;;;;;;;2.90;2.00;;;13.80;80.30;;;;;;5091418;28;20851;-66
2021/06/01 23:12:41;;;;;;;4.80;2.10;;;13.80;79.70;;;;;;5092192;28;20441;-66
2021/06/01 23:15:09;;;;;;;9.50;2.30;;;13.70;80.20;;;;;;5091594;28;20469;-66
2021/06/01 23:17:37;;;;;;;9.33;1.97;;;13.70;80.50;;;;;;5091704;28;20484;-66
2021/06/01 23:20:07;;;;;;;3.07;2.40;;;13.60;80.40;;;;;;5091762;28;20494;-66